Terminal Aerodrome Forecast
Issued by NWS Northern Indiana

Home | Current Version | Previous Version | Graphics & Text | Print | Product List | Glossary On
Versions: 1 2 3 4 5 6 7 8 9 10 11 12 13 14 15 16
000
FTUS43 KIWX 271121
TAFFWA
TAF
KFWA 271121Z 2712/2812 19012KT P6SM VCSH OVC050
     FM271400 20016G26KT P6SM VCSH OVC030
     FM271600 23018G26KT P6SM BKN020
     FM280200 24007KT P6SM SCT025=

USA.gov is the U.S. government's official web portal to all federal, state and local government web resources and services.